createdAt,value
2022-08-08T00:01:13.573Z,59.63
2022-08-08T00:04:00.623Z,58.94
2022-08-08T00:06:39.083Z,59.69
2022-08-08T00:09:16.081Z,60.88
2022-08-08T00:12:07.214Z,59.88
2022-08-08T00:14:56.848Z,59.82
2022-08-08T00:17:58.594Z,61.02
2022-08-08T00:20:34.281Z,60.54
2022-08-08T00:23:08.497Z,60.52
2022-08-08T00:25:46.502Z,61.16
2022-08-08T00:28:38.923Z,62.65
2022-08-08T00:32:28.276Z,61.38
2022-08-08T00:34:57.494Z,62.07
2022-08-08T00:37:47.510Z,61.31
2022-08-08T00:41:09.988Z,61.64
2022-08-08T00:44:23.585Z,62.12
2022-08-08T00:47:23.542Z,62.06
2022-08-08T00:50:15.702Z,62.67
2022-08-08T00:52:54.581Z,61.97
2022-08-08T00:55:52.494Z,61.61
2022-08-08T00:59:00.962Z,61.95
2022-08-08T01:01:39.150Z,61.87
2022-08-08T01:04:41.999Z,61.43
2022-08-08T01:07:55.531Z,62.40
2022-08-08T01:10:44.953Z,62.29
2022-08-08T01:13:43.578Z,63.11
2022-08-08T01:16:49.776Z,62.80
2022-08-08T01:19:52.432Z,62.05
2022-08-08T01:22:58.855Z,62.69
2022-08-08T01:26:05.973Z,62.04
2022-08-08T01:29:23.973Z,62.19
2022-08-08T01:32:31.473Z,61.59
2022-08-08T01:35:12.998Z,61.78
2022-08-08T01:38:14.022Z,61.58
2022-08-08T01:40:54.249Z,61.76
2022-08-08T01:43:39.195Z,62.16
2022-08-08T01:46:24.958Z,61.70
2022-08-08T01:49:03.186Z,61.84
2022-08-08T01:52:29.459Z,62.07
2022-08-08T01:55:25.755Z,61.72
2022-08-08T01:58:12.265Z,61.63
2022-08-08T02:00:48.467Z,61.96
2022-08-08T02:03:57.400Z,61.53
2022-08-08T02:06:36.821Z,61.03
2022-08-08T02:10:01.974Z,61.91
2022-08-08T02:12:23.670Z,61.74
2022-08-08T02:14:59.641Z,61.75
2022-08-08T02:17:42.718Z,61.83
2022-08-08T02:21:00.667Z,62.69
2022-08-08T02:23:16.374Z,62.29
2022-08-08T02:25:50.911Z,62.41
2022-08-08T02:28:35.135Z,63.14
2022-08-08T02:31:43.669Z,63.39
2022-08-08T02:34:08.580Z,63.82
2022-08-08T02:36:47.869Z,63.46
2022-08-08T02:39:40.612Z,63.82
2022-08-08T02:42:47.882Z,64.89
2022-08-08T02:46:05.148Z,65.05
2022-08-08T02:49:38.080Z,64.67
2022-08-08T02:52:34.719Z,65.41
2022-08-08T02:55:39.125Z,65.79
2022-08-08T02:58:54.265Z,66.19
2022-08-08T03:01:59.762Z,66.61
2022-08-08T03:05:15.715Z,65.48
2022-08-08T03:08:37.377Z,66.06
2022-08-08T03:12:02.002Z,67.38
2022-08-08T03:15:59.073Z,66.84
2022-08-08T03:17:39.926Z,66.54
2022-08-08T03:20:10.524Z,67.64
2022-08-08T03:22:45.858Z,67.77
2022-08-08T03:25:18.793Z,69.16
2022-08-08T03:27:56.257Z,69.97
2022-08-08T03:30:24.971Z,70.23
2022-08-08T03:33:54.624Z,69.64
2022-08-08T03:35:59.713Z,70.17
2022-08-08T03:38:54.982Z,70.23
2022-08-08T03:42:12.359Z,71.12
2022-08-08T03:44:06.102Z,71.95
2022-08-08T03:46:47.103Z,71.70
2022-08-08T03:49:59.010Z,71.17
2022-08-08T03:52:08.381Z,69.36
2022-08-08T03:55:02.222Z,69.68
2022-08-08T03:58:31.181Z,69.14
2022-08-08T04:00:21.786Z,69.25
2022-08-08T04:03:03.374Z,69.89
2022-08-08T04:05:35.201Z,70.49
2022-08-08T04:08:06.849Z,71.88
2022-08-08T04:10:37.251Z,71.28
2022-08-08T04:13:17.509Z,72.05
2022-08-08T04:16:03.351Z,71.30
2022-08-08T04:18:37.053Z,71.53
2022-08-08T04:21:10.061Z,70.54
2022-08-08T04:24:12.280Z,71.19
2022-08-08T04:26:27.071Z,70.47
2022-08-08T04:29:03.558Z,70.75
2022-08-08T04:31:59.185Z,69.85
2022-08-08T04:34:20.110Z,70.50
2022-08-08T04:36:47.869Z,70.83
2022-08-08T04:40:04.127Z,71.68
2022-08-08T04:42:05.265Z,70.74
2022-08-08T04:44:33.953Z,69.38
2022-08-08T04:47:01.858Z,69.82
2022-08-08T04:50:01.016Z,71.04
2022-08-08T04:52:17.398Z,70.96
2022-08-08T04:54:50.732Z,70.67
2022-08-08T04:57:20.002Z,69.66
2022-08-08T04:59:49.478Z,70.26
2022-08-08T05:02:20.290Z,69.69
2022-08-08T05:04:56.490Z,69.32
2022-08-08T05:07:38.106Z,68.96
2022-08-08T05:10:12.739Z,70.01
2022-08-08T05:13:00.292Z,69.24
2022-08-08T05:15:31.438Z,70.11
2022-08-08T05:18:17.857Z,69.91
2022-08-08T05:20:50.251Z,70.55
2022-08-08T05:23:20.661Z,70.12
2022-08-08T05:25:49.815Z,69.18
2022-08-08T05:28:48.381Z,69.18
2022-08-08T05:31:19.467Z,68.34
2022-08-08T05:33:54.973Z,68.07
2022-08-08T05:36:28.249Z,68.26
2022-08-08T05:38:58.934Z,68.17
2022-08-08T05:41:27.996Z,68.11
2022-08-08T05:44:13.694Z,68.45
2022-08-08T05:46:42.838Z,67.23
2022-08-08T05:49:15.752Z,66.85
2022-08-08T05:51:48.730Z,67.22
2022-08-08T05:54:28.214Z,67.43
2022-08-08T05:57:12.519Z,67.32
2022-08-08T05:59:59.216Z,67.02
2022-08-08T06:02:48.657Z,66.75
2022-08-08T06:05:34.324Z,66.07
2022-08-08T06:08:10.157Z,65.56
2022-08-08T06:10:54.626Z,64.74
2022-08-08T06:13:23.494Z,64.13
2022-08-08T06:15:55.946Z,64.17
2022-08-08T06:18:25.177Z,64.94
2022-08-08T06:20:57.048Z,63.93
2022-08-08T06:23:39.712Z,64.54
2022-08-08T06:26:43.712Z,62.82
2022-08-08T06:29:26.598Z,62.81
2022-08-08T06:32:11.053Z,62.51
2022-08-08T06:34:56.703Z,62.48
2022-08-08T06:37:40.286Z,61.91
2022-08-08T06:40:16.094Z,61.32
2022-08-08T06:42:51.292Z,61.09
2022-08-08T06:45:23.027Z,61.04
2022-08-08T06:48:01.156Z,60.25
2022-08-08T06:50:33.755Z,59.84
2022-08-08T06:53:13.811Z,59.87
2022-08-08T06:55:43.360Z,58.77
2022-08-08T06:58:11.611Z,59.94
2022-08-08T07:00:41.250Z,59.01
2022-08-08T07:03:51.538Z,57.52
2022-08-08T07:06:06.437Z,57.51
2022-08-08T07:08:40.015Z,57.82
2022-08-08T07:11:22.229Z,56.61
2022-08-08T07:14:00.605Z,56.09
2022-08-08T07:16:51.189Z,56.56
2022-08-08T07:19:31.555Z,56.41
2022-08-08T07:22:05.656Z,55.33
2022-08-08T07:24:44.905Z,54.92
2022-08-08T07:27:17.151Z,54.32
2022-08-08T07:29:59.594Z,54.82
2022-08-08T07:32:31.385Z,53.20
2022-08-08T07:35:02.754Z,52.79
2022-08-08T07:37:56.552Z,52.44
2022-08-08T07:40:29.067Z,52.27
2022-08-08T07:42:59.484Z,52.43
2022-08-08T07:45:34.673Z,52.21
2022-08-08T07:48:15.439Z,51.81
2022-08-08T07:50:47.575Z,52.15
2022-08-08T07:53:52.797Z,51.12
2022-08-08T07:56:13.212Z,50.18
2022-08-08T07:58:45.298Z,50.75
2022-08-08T08:01:27.227Z,50.39
2022-08-08T08:04:17.661Z,50.59
2022-08-08T08:06:47.695Z,49.91
2022-08-08T08:09:24.858Z,49.53
2022-08-08T08:11:56.823Z,48.36
2022-08-08T08:14:31.744Z,47.86
2022-08-08T08:16:59.818Z,47.49
2022-08-08T08:19:45.537Z,47.43
2022-08-08T08:22:16.127Z,46.51
2022-08-08T08:24:59.054Z,46.84
2022-08-08T08:27:36.012Z,46.02
2022-08-08T08:30:03.866Z,44.84
2022-08-08T08:32:36.447Z,44.99
2022-08-08T08:35:05.243Z,43.40
2022-08-08T08:37:53.018Z,43.46
2022-08-08T08:40:25.050Z,43.14
2022-08-08T08:42:54.567Z,42.56
2022-08-08T08:45:23.486Z,42.67
2022-08-08T08:47:54.127Z,42.72
2022-08-08T08:50:33.909Z,42.03
2022-08-08T08:53:54.051Z,41.86
2022-08-08T08:56:01.455Z,40.96
2022-08-08T08:58:33.694Z,41.39
2022-08-08T09:01:08.428Z,40.55
2022-08-08T09:03:47.040Z,40.44
2022-08-08T09:06:28.391Z,40.79
2022-08-08T09:09:07.296Z,39.81
2022-08-08T09:12:01.676Z,39.97
2022-08-08T09:14:34.180Z,40.15
2022-08-08T09:17:11.579Z,39.30
2022-08-08T09:21:59.386Z,38.82
2022-08-08T09:22:31.297Z,38.97
2022-08-08T09:25:00.793Z,38.88
2022-08-08T09:27:57.691Z,38.82
2022-08-08T09:30:20.132Z,39.21
2022-08-08T09:33:12.753Z,38.97
2022-08-08T09:35:50.196Z,38.55
2022-08-08T09:38:32.647Z,37.33
2022-08-08T09:41:06.550Z,38.29
2022-08-08T09:44:05.276Z,37.61
2022-08-08T09:46:45.607Z,37.62
2022-08-08T09:49:42.499Z,38.07
2022-08-08T09:52:56.010Z,38.04
2022-08-08T09:55:08.496Z,38.78
2022-08-08T09:57:46.321Z,37.38
2022-08-08T10:00:53.155Z,37.35
2022-08-08T10:03:15.833Z,37.46
2022-08-08T10:05:48.105Z,37.31
2022-08-08T10:08:17.662Z,37.79
2022-08-08T10:10:50.988Z,37.12
2022-08-08T10:13:29.985Z,37.12
2022-08-08T10:16:03.787Z,37.69
2022-08-08T10:18:34.047Z,37.03
2022-08-08T10:21:08.249Z,36.90
2022-08-08T10:23:58.974Z,36.92
2022-08-08T10:26:59.298Z,36.44
2022-08-08T10:29:43.976Z,37.15
2022-08-08T10:32:48.649Z,36.21
2022-08-08T10:36:08.438Z,36.48
2022-08-08T10:38:10.801Z,36.94
2022-08-08T10:40:45.240Z,36.26
2022-08-08T10:43:14.263Z,36.12
2022-08-08T10:45:55.624Z,36.15
2022-08-08T10:48:35.937Z,36.93
2022-08-08T10:51:13.272Z,36.60
2022-08-08T10:53:56.371Z,36.39
2022-08-08T10:56:32.577Z,37.00
2022-08-08T10:59:06.209Z,36.57
2022-08-08T11:01:38.413Z,37.32
2022-08-08T11:04:10.511Z,37.43
2022-08-08T11:06:41.828Z,36.85
2022-08-08T11:09:19.767Z,37.29
2022-08-08T11:12:06.287Z,37.24
2022-08-08T11:14:50.608Z,36.76
2022-08-08T11:17:58.290Z,37.12
2022-08-08T11:20:14.081Z,37.20
2022-08-08T11:22:50.913Z,37.85
2022-08-08T11:25:23.002Z,37.56
2022-08-08T11:28:14.116Z,36.52
2022-08-08T11:30:52.676Z,36.66
2022-08-08T11:33:51.768Z,37.01
2022-08-08T11:36:15.465Z,37.47
2022-08-08T11:38:55.557Z,36.52
2022-08-08T11:41:24.822Z,37.13
2022-08-08T11:43:58.127Z,36.77
2022-08-08T11:46:30.477Z,36.83
2022-08-08T11:49:04.364Z,36.47
2022-08-08T11:51:39.672Z,37.37
2022-08-08T11:54:31.390Z,37.21
2022-08-08T11:57:14.479Z,36.71
2022-08-08T11:59:58.401Z,36.22
2022-08-08T12:02:33.649Z,36.30
2022-08-08T12:05:06.827Z,36.28
2022-08-08T12:07:46.671Z,35.80
2022-08-08T12:10:16.097Z,35.62
2022-08-08T12:12:48.625Z,35.49
2022-08-08T12:15:28.605Z,35.51
2022-08-08T12:17:56.496Z,35.55
2022-08-08T12:20:26.453Z,34.88
2022-08-08T12:22:57.164Z,35.06
2022-08-08T12:25:30.003Z,35.65
2022-08-08T12:28:15.464Z,35.90
2022-08-08T12:30:47.926Z,36.27
2022-08-08T12:33:19.474Z,34.55
2022-08-08T12:35:52.253Z,34.57
2022-08-08T12:38:30.427Z,34.64
2022-08-08T12:41:18.217Z,34.44
2022-08-08T12:43:59.809Z,34.90
2022-08-08T12:46:28.847Z,34.36
2022-08-08T12:51:59.333Z,33.14
2022-08-08T12:54:34.084Z,33.66
2022-08-08T12:57:14.928Z,33.49
2022-08-08T13:00:05.010Z,34.32
2022-08-08T13:02:36.161Z,33.01
2022-08-08T13:05:25.669Z,33.28
2022-08-08T13:08:03.043Z,32.71
2022-08-08T13:10:36.285Z,32.90
2022-08-08T13:13:07.995Z,32.91
2022-08-08T13:15:36.936Z,33.47
2022-08-08T13:18:11.370Z,32.71
2022-08-08T13:20:45.736Z,33.01
2022-08-08T13:23:30.650Z,31.44
2022-08-08T13:26:03.963Z,32.20
2022-08-08T13:28:42.380Z,31.75
2022-08-08T13:31:16.590Z,31.73
2022-08-08T13:33:47.342Z,32.58
2022-08-08T13:36:25.897Z,31.98
2022-08-08T13:39:00.444Z,32.37
2022-08-08T13:41:37.786Z,31.99
2022-08-08T13:44:11.543Z,32.00
2022-08-08T13:46:39.804Z,30.99
2022-08-08T13:50:39.398Z,31.75
2022-08-08T13:52:06.469Z,31.69
2022-08-08T13:54:44.068Z,31.84
2022-08-08T13:57:14.388Z,31.50
2022-08-08T13:59:48.235Z,30.57
2022-08-08T14:02:20.843Z,31.47
2022-08-08T14:04:57.132Z,30.86
2022-08-08T14:07:29.925Z,30.58
2022-08-08T14:10:11.669Z,29.97
2022-08-08T14:12:43.778Z,30.09
2022-08-08T14:15:31.540Z,31.18
2022-08-08T14:18:36.587Z,31.13
2022-08-08T14:21:03.794Z,31.30
2022-08-08T14:24:06.651Z,31.42
2022-08-08T14:26:33.232Z,31.29
2022-08-08T14:29:01.495Z,31.24
2022-08-08T14:31:37.183Z,30.37
2022-08-08T14:34:23.366Z,30.59
2022-08-08T14:36:57.505Z,31.35
2022-08-08T14:39:25.317Z,31.38
2022-08-08T14:42:16.864Z,31.52
2022-08-08T14:44:55.150Z,31.28
2022-08-08T14:47:23.388Z,31.26
2022-08-08T14:50:05.832Z,30.69
2022-08-08T14:52:49.934Z,31.32
2022-08-08T14:55:22.732Z,32.12
2022-08-08T14:58:12.061Z,31.47
2022-08-08T15:00:44.493Z,31.92
2022-08-08T15:03:16.047Z,31.41
2022-08-08T15:05:53.232Z,31.68
2022-08-08T15:08:34.565Z,30.77
2022-08-08T15:11:09.170Z,31.25
2022-08-08T15:14:01.130Z,31.01
2022-08-08T15:16:29.341Z,31.39
2022-08-08T15:19:03.094Z,31.13
2022-08-08T15:21:31.468Z,30.81
2022-08-08T15:23:59.698Z,30.64
2022-08-08T15:26:28.969Z,30.96
2022-08-08T15:28:58.601Z,31.43
2022-08-08T15:32:03.196Z,31.37
2022-08-08T15:34:18.461Z,31.05
2022-08-08T15:36:58.679Z,31.13
2022-08-08T15:39:28.851Z,31.93
2022-08-08T15:41:59.270Z,31.69
2022-08-08T15:44:29.490Z,31.37
2022-08-08T15:46:57.897Z,31.93
2022-08-08T15:49:26.633Z,31.25
2022-08-08T15:51:57.395Z,31.11
2022-08-08T15:54:38.389Z,31.29
2022-08-08T15:57:08.864Z,31.51
2022-08-08T16:00:05.099Z,31.49
2022-08-08T16:02:31.038Z,31.39
2022-08-08T16:04:59.824Z,30.94
2022-08-08T16:07:51.776Z,31.58
2022-08-08T16:13:10.007Z,31.29
2022-08-08T16:13:27.122Z,31.58
2022-08-08T16:15:58.897Z,31.27
2022-08-08T16:18:27.857Z,31.09
2022-08-08T16:21:00.296Z,31.81
2022-08-08T16:23:32.495Z,31.54
2022-08-08T16:26:04.370Z,31.53
2022-08-08T16:28:36.039Z,31.43
2022-08-08T16:31:08.225Z,31.67
2022-08-08T16:33:38.451Z,31.96
2022-08-08T16:36:09.699Z,31.96
2022-08-08T16:38:45.057Z,31.61
2022-08-08T16:41:18.414Z,32.02
2022-08-08T16:43:49.017Z,31.57
2022-08-08T16:46:38.493Z,32.03
2022-08-08T16:49:09.356Z,31.73
2022-08-08T16:55:00.965Z,32.03
2022-08-08T16:55:05.141Z,32.05
2022-08-08T16:58:11.741Z,32.14
2022-08-08T17:00:08.792Z,31.79
2022-08-08T17:02:44.681Z,31.64
2022-08-08T17:05:14.151Z,32.10
2022-08-08T17:07:42.300Z,31.96
2022-08-08T17:10:11.616Z,32.09
2022-08-08T17:12:46.836Z,31.74
2022-08-08T17:15:21.272Z,31.70
2022-08-08T17:18:02.772Z,32.00
2022-08-08T17:20:31.865Z,32.12
2022-08-08T17:23:18.166Z,31.70
2022-08-08T17:25:52.587Z,32.47
2022-08-08T17:28:34.942Z,32.01
2022-08-08T17:31:44.202Z,31.79
2022-08-08T17:34:48.250Z,32.27
2022-08-08T17:36:55.165Z,32.14
2022-08-08T17:40:03.322Z,32.10
2022-08-08T17:42:16.568Z,31.88
2022-08-08T17:44:46.585Z,31.91
2022-08-08T17:47:24.110Z,32.07
2022-08-08T17:50:01.058Z,32.35
2022-08-08T17:52:34.377Z,32.90
2022-08-08T17:55:05.502Z,32.21
2022-08-08T17:57:37.611Z,32.67
2022-08-08T18:00:19.342Z,32.65
2022-08-08T18:02:58.094Z,32.11
2022-08-08T18:05:49.516Z,32.53
2022-08-08T18:08:37.942Z,32.71
2022-08-08T18:11:11.728Z,32.68
2022-08-08T18:13:42.674Z,32.46
2022-08-08T18:16:11.607Z,32.50
2022-08-08T18:18:42.821Z,32.62
2022-08-08T18:21:34.813Z,33.07
2022-08-08T18:24:02.870Z,33.11
2022-08-08T18:26:30.713Z,33.01
2022-08-08T18:28:58.481Z,33.71
2022-08-08T18:31:28.422Z,33.32
2022-08-08T18:34:11.221Z,33.46
2022-08-08T18:36:45.509Z,33.82
2022-08-08T18:39:27.715Z,34.61
2022-08-08T18:42:03.076Z,34.59
2022-08-08T18:44:34.737Z,35.12
2022-08-08T18:47:04.597Z,35.89
2022-08-08T18:49:54.704Z,35.89
2022-08-08T18:52:23.617Z,36.50
2022-08-08T18:55:00.808Z,36.20
2022-08-08T18:57:41.718Z,36.84
2022-08-08T19:00:15.567Z,37.02
2022-08-08T19:02:48.497Z,36.81
2022-08-08T19:05:32.227Z,37.33
2022-08-08T19:08:24.890Z,38.30
2022-08-08T19:10:57.690Z,38.14
2022-08-08T19:13:38.299Z,39.41
2022-08-08T19:16:18.273Z,40.01
2022-08-08T19:18:54.491Z,39.50
2022-08-08T19:21:31.085Z,40.04
2022-08-08T19:24:05.293Z,40.85
2022-08-08T19:26:34.566Z,41.17
2022-08-08T19:29:02.375Z,41.65
2022-08-08T19:31:34.925Z,41.79
2022-08-08T19:34:35.619Z,42.61
2022-08-08T19:36:53.433Z,41.76
2022-08-08T19:39:24.697Z,42.81
2022-08-08T19:41:52.615Z,42.81
2022-08-08T19:44:42.397Z,42.83
2022-08-08T19:47:08.277Z,43.62
2022-08-08T19:49:38.062Z,43.86
2022-08-08T19:52:07.231Z,44.19
2022-08-08T19:54:39.658Z,44.98
2022-08-08T19:57:07.965Z,45.83
2022-08-08T19:59:35.785Z,46.91
2022-08-08T20:02:05.327Z,46.49
2022-08-08T20:04:33.548Z,47.23
2022-08-08T20:07:05.493Z,47.77
2022-08-08T20:09:56.209Z,47.73
2022-08-08T20:12:33.044Z,48.54
2022-08-08T20:15:15.072Z,48.19
2022-08-08T20:17:45.981Z,48.81
2022-08-08T20:20:18.947Z,49.54
2022-08-08T20:22:52.640Z,49.92
2022-08-08T20:25:29.810Z,50.66
2022-08-08T20:28:02.155Z,50.95
2022-08-08T20:30:53.309Z,51.00
2022-08-08T20:35:57.987Z,51.06
2022-08-08T20:38:32.837Z,51.36
2022-08-08T20:41:16.982Z,51.23
2022-08-08T20:43:48.118Z,51.79
2022-08-08T20:46:20.673Z,52.63
2022-08-08T20:48:51.114Z,52.96
2022-08-08T20:51:20.848Z,53.24
2022-08-08T20:54:01.104Z,52.49
2022-08-08T20:56:35.699Z,53.72
2022-08-08T20:59:05.838Z,54.10
2022-08-08T21:02:05.542Z,53.88
2022-08-08T21:04:23.329Z,54.43
2022-08-08T21:06:53.107Z,54.51
2022-08-08T21:09:21.865Z,54.94
2022-08-08T21:12:02.740Z,54.43
2022-08-08T21:14:33.478Z,54.86
2022-08-08T21:17:03.094Z,55.55
2022-08-08T21:19:44.258Z,55.31
2022-08-08T21:22:14.634Z,56.80
2022-08-08T21:24:52.734Z,56.71
2022-08-08T21:28:05.024Z,56.47
2022-08-08T21:30:19.254Z,56.82
2022-08-08T21:32:52.242Z,57.75
2022-08-08T21:36:16.629Z,56.77
2022-08-08T21:38:16.213Z,58.37
2022-08-08T21:40:55.947Z,58.38
2022-08-08T21:43:30.967Z,58.91
2022-08-08T21:48:06.842Z,58.67
2022-08-08T21:48:51.768Z,58.38
2022-08-08T21:54:31.174Z,59.25
2022-08-08T21:54:33.384Z,60.37
2022-08-08T21:56:59.206Z,59.83
2022-08-08T22:00:01.850Z,59.61
2022-08-08T22:02:19.437Z,60.43
2022-08-08T22:04:52.533Z,60.71
2022-08-08T22:07:20.384Z,60.84
2022-08-08T22:09:54.953Z,60.67
2022-08-08T22:12:22.707Z,60.54
2022-08-08T22:14:54.443Z,60.72
2022-08-08T22:17:22.196Z,61.39
2022-08-08T22:20:12.420Z,62.15
2022-08-08T22:22:38.731Z,62.50
2022-08-08T22:25:17.760Z,62.49
2022-08-08T22:28:03.562Z,62.16
2022-08-08T22:30:34.168Z,62.88
2022-08-08T22:33:03.358Z,63.79
2022-08-08T22:36:04.832Z,63.83
2022-08-08T22:38:47.950Z,63.67
2022-08-08T22:41:20.948Z,65.77
2022-08-08T22:44:05.437Z,64.06
2022-08-08T22:46:38.920Z,63.56
2022-08-08T22:49:09.045Z,64.84
2022-08-08T22:51:46.106Z,64.68
2022-08-08T22:54:32.638Z,64.43
2022-08-08T22:57:11.591Z,64.94
2022-08-08T22:59:58.971Z,64.74
2022-08-08T23:02:29.619Z,65.74
2022-08-08T23:05:04.796Z,66.09
2022-08-08T23:07:50.886Z,65.33
2022-08-08T23:10:25.279Z,66.75
2022-08-08T23:12:54.642Z,65.74
2022-08-08T23:16:41.764Z,66.31
2022-08-08T23:18:12.609Z,66.27
2022-08-08T23:20:43.563Z,65.61
2022-08-08T23:23:12.489Z,65.87
2022-08-08T23:25:48.025Z,65.77
2022-08-08T23:28:18.956Z,66.23
2022-08-08T23:30:47.597Z,66.78
2022-08-08T23:33:21.354Z,66.86
2022-08-08T23:36:08.312Z,67.74
2022-08-08T23:38:44.086Z,67.27
2022-08-08T23:41:23.131Z,66.93
2022-08-08T23:43:54.403Z,68.31
2022-08-08T23:49:02.103Z,67.98
2022-08-08T23:49:18.806Z,67.90
2022-08-08T23:52:07.191Z,67.31
2022-08-08T23:54:42.126Z,67.48
2022-08-08T23:57:27.496Z,68.83
